sensor_id;sensor_type;location;lat;lon;timestamp;P1;durP1;ratioP1;P2;durP2;ratioP2
81487;SDS011;70897;52.464;13.428;2024-03-06T00:01:24;35.05;;;20.30;;
81487;SDS011;70897;52.464;13.428;2024-03-06T00:04:09;37.45;;;20.13;;
81487;SDS011;70897;52.464;13.428;2024-03-06T00:06:54;35.92;;;20.17;;
81487;SDS011;70897;52.464;13.428;2024-03-06T00:09:39;35.83;;;19.20;;
81487;SDS011;70897;52.464;13.428;2024-03-06T00:12:25;37.00;;;21.20;;
81487;SDS011;70897;52.464;13.428;2024-03-06T00:15:10;33.42;;;19.65;;
81487;SDS011;70897;52.464;13.428;2024-03-06T00:17:55;33.28;;;19.65;;
81487;SDS011;70897;52.464;13.428;2024-03-06T00:20:40;39.35;;;21.15;;
81487;SDS011;70897;52.464;13.428;2024-03-06T00:23:26;39.05;;;20.13;;
81487;SDS011;70897;52.464;13.428;2024-03-06T00:26:11;35.63;;;20.15;;
81487;SDS011;70897;52.464;13.428;2024-03-06T00:28:57;34.75;;;19.50;;
81487;SDS011;70897;52.464;13.428;2024-03-06T00:31:42;36.90;;;20.67;;
81487;SDS011;70897;52.464;13.428;2024-03-06T00:34:28;37.25;;;21.23;;
81487;SDS011;70897;52.464;13.428;2024-03-06T00:37:13;36.35;;;21.48;;
81487;SDS011;70897;52.464;13.428;2024-03-06T00:39:58;38.28;;;21.15;;
81487;SDS011;70897;52.464;13.428;2024-03-06T00:42:43;36.88;;;20.85;;
81487;SDS011;70897;52.464;13.428;2024-03-06T00:45:29;34.88;;;20.92;;
81487;SDS011;70897;52.464;13.428;2024-03-06T00:48:14;34.80;;;21.15;;
81487;SDS011;70897;52.464;13.428;2024-03-06T00:50:59;35.15;;;20.30;;
81487;SDS011;70897;52.464;13.428;2024-03-06T00:53:44;36.90;;;20.30;;
81487;SDS011;70897;52.464;13.428;2024-03-06T00:56:30;36.97;;;20.60;;
81487;SDS011;70897;52.464;13.428;2024-03-06T00:59:15;35.58;;;19.95;;
81487;SDS011;70897;52.464;13.428;2024-03-06T01:02:00;39.35;;;20.63;;
81487;SDS011;70897;52.464;13.428;2024-03-06T01:04:45;34.15;;;20.08;;
81487;SDS011;70897;52.464;13.428;2024-03-06T01:07:30;34.13;;;20.58;;
81487;SDS011;70897;52.464;13.428;2024-03-06T01:10:15;37.17;;;21.67;;
81487;SDS011;70897;52.464;13.428;2024-03-06T01:13:00;37.65;;;20.65;;
81487;SDS011;70897;52.464;13.428;2024-03-06T01:15:45;39.72;;;22.10;;
81487;SDS011;70897;52.464;13.428;2024-03-06T01:18:30;40.03;;;22.80;;
81487;SDS011;70897;52.464;13.428;2024-03-06T01:21:15;38.17;;;22.00;;
81487;SDS011;70897;52.464;13.428;2024-03-06T01:24:01;37.17;;;21.38;;
81487;SDS011;70897;52.464;13.428;2024-03-06T01:26:46;41.40;;;22.77;;
81487;SDS011;70897;52.464;13.428;2024-03-06T01:29:31;40.28;;;23.58;;
81487;SDS011;70897;52.464;13.428;2024-03-06T01:32:16;42.03;;;23.30;;
81487;SDS011;70897;52.464;13.428;2024-03-06T01:35:01;42.78;;;23.25;;
81487;SDS011;70897;52.464;13.428;2024-03-06T01:37:47;41.47;;;23.10;;
81487;SDS011;70897;52.464;13.428;2024-03-06T01:40:32;41.92;;;22.98;;
81487;SDS011;70897;52.464;13.428;2024-03-06T01:43:26;40.22;;;22.90;;
81487;SDS011;70897;52.464;13.428;2024-03-06T01:46:11;43.17;;;23.35;;
81487;SDS011;70897;52.464;13.428;2024-03-06T01:48:57;38.67;;;22.67;;
81487;SDS011;70897;52.464;13.428;2024-03-06T01:51:42;39.85;;;23.00;;
81487;SDS011;70897;52.464;13.428;2024-03-06T01:54:33;40.72;;;22.05;;
81487;SDS011;70897;52.464;13.428;2024-03-06T01:57:18;39.67;;;22.20;;
81487;SDS011;70897;52.464;13.428;2024-03-06T02:00:04;36.22;;;22.08;;
81487;SDS011;70897;52.464;13.428;2024-03-06T02:02:52;37.97;;;22.15;;
81487;SDS011;70897;52.464;13.428;2024-03-06T02:05:38;39.33;;;22.38;;
81487;SDS011;70897;52.464;13.428;2024-03-06T02:08:24;38.03;;;21.48;;
81487;SDS011;70897;52.464;13.428;2024-03-06T02:11:09;40.28;;;22.50;;
81487;SDS011;70897;52.464;13.428;2024-03-06T02:13:54;39.22;;;22.27;;
81487;SDS011;70897;52.464;13.428;2024-03-06T02:16:39;38.88;;;22.15;;
81487;SDS011;70897;52.464;13.428;2024-03-06T02:19:24;35.00;;;21.30;;
81487;SDS011;70897;52.464;13.428;2024-03-06T02:22:11;39.70;;;23.20;;
81487;SDS011;70897;52.464;13.428;2024-03-06T02:24:56;40.65;;;22.80;;
81487;SDS011;70897;52.464;13.428;2024-03-06T02:27:41;37.22;;;21.55;;
81487;SDS011;70897;52.464;13.428;2024-03-06T02:30:26;38.10;;;22.25;;
81487;SDS011;70897;52.464;13.428;2024-03-06T02:33:11;40.63;;;22.60;;
81487;SDS011;70897;52.464;13.428;2024-03-06T02:35:56;38.53;;;22.45;;
81487;SDS011;70897;52.464;13.428;2024-03-06T02:38:41;38.42;;;22.75;;
81487;SDS011;70897;52.464;13.428;2024-03-06T02:41:26;40.90;;;22.38;;
81487;SDS011;70897;52.464;13.428;2024-03-06T02:44:11;39.25;;;22.58;;
81487;SDS011;70897;52.464;13.428;2024-03-06T02:46:56;41.05;;;23.08;;
81487;SDS011;70897;52.464;13.428;2024-03-06T02:49:41;37.65;;;22.30;;
81487;SDS011;70897;52.464;13.428;2024-03-06T02:52:26;35.17;;;21.50;;
81487;SDS011;70897;52.464;13.428;2024-03-06T02:55:11;39.97;;;21.40;;
81487;SDS011;70897;52.464;13.428;2024-03-06T02:57:56;39.95;;;23.25;;
81487;SDS011;70897;52.464;13.428;2024-03-06T03:00:42;42.08;;;23.83;;
81487;SDS011;70897;52.464;13.428;2024-03-06T03:03:27;39.80;;;23.13;;
81487;SDS011;70897;52.464;13.428;2024-03-06T03:06:14;39.05;;;23.00;;
81487;SDS011;70897;52.464;13.428;2024-03-06T03:08:59;43.20;;;24.08;;
81487;SDS011;70897;52.464;13.428;2024-03-06T03:11:44;46.88;;;23.92;;
81487;SDS011;70897;52.464;13.428;2024-03-06T03:14:29;41.15;;;23.80;;
81487;SDS011;70897;52.464;13.428;2024-03-06T03:17:14;42.85;;;23.30;;
81487;SDS011;70897;52.464;13.428;2024-03-06T03:19:59;44.63;;;24.30;;
81487;SDS011;70897;52.464;13.428;2024-03-06T03:22:45;43.40;;;23.75;;
81487;SDS011;70897;52.464;13.428;2024-03-06T03:25:30;40.15;;;23.70;;
81487;SDS011;70897;52.464;13.428;2024-03-06T03:28:16;39.63;;;22.33;;
81487;SDS011;70897;52.464;13.428;2024-03-06T03:31:01;39.13;;;22.33;;
81487;SDS011;70897;52.464;13.428;2024-03-06T03:33:46;42.50;;;24.13;;
81487;SDS011;70897;52.464;13.428;2024-03-06T03:36:31;42.95;;;24.48;;
81487;SDS011;70897;52.464;13.428;2024-03-06T03:39:16;43.70;;;23.88;;
81487;SDS011;70897;52.464;13.428;2024-03-06T03:42:02;40.67;;;23.52;;
81487;SDS011;70897;52.464;13.428;2024-03-06T03:44:47;39.10;;;23.10;;
81487;SDS011;70897;52.464;13.428;2024-03-06T03:47:32;41.03;;;23.92;;
81487;SDS011;70897;52.464;13.428;2024-03-06T03:50:17;41.13;;;22.60;;
81487;SDS011;70897;52.464;13.428;2024-03-06T03:53:02;39.67;;;22.58;;
81487;SDS011;70897;52.464;13.428;2024-03-06T03:55:47;44.60;;;23.00;;
81487;SDS011;70897;52.464;13.428;2024-03-06T03:58:32;39.72;;;23.10;;
81487;SDS011;70897;52.464;13.428;2024-03-06T04:01:17;42.58;;;24.20;;
81487;SDS011;70897;52.464;13.428;2024-03-06T04:04:02;41.15;;;23.50;;
81487;SDS011;70897;52.464;13.428;2024-03-06T04:06:48;46.65;;;26.20;;
81487;SDS011;70897;52.464;13.428;2024-03-06T04:09:32;43.08;;;24.55;;
81487;SDS011;70897;52.464;13.428;2024-03-06T04:12:20;45.85;;;24.30;;
81487;SDS011;70897;52.464;13.428;2024-03-06T04:15:05;43.28;;;24.63;;
81487;SDS011;70897;52.464;13.428;2024-03-06T04:17:51;45.42;;;24.38;;
81487;SDS011;70897;52.464;13.428;2024-03-06T04:20:36;45.75;;;24.33;;
81487;SDS011;70897;52.464;13.428;2024-03-06T04:23:21;43.33;;;24.45;;
81487;SDS011;70897;52.464;13.428;2024-03-06T04:26:06;45.65;;;24.50;;
81487;SDS011;70897;52.464;13.428;2024-03-06T04:28:51;41.42;;;24.23;;
81487;SDS011;70897;52.464;13.428;2024-03-06T04:31:36;42.78;;;23.95;;
81487;SDS011;70897;52.464;13.428;2024-03-06T04:34:21;48.22;;;25.23;;
81487;SDS011;70897;52.464;13.428;2024-03-06T04:37:08;40.33;;;23.98;;
81487;SDS011;70897;52.464;13.428;2024-03-06T04:39:53;42.55;;;23.17;;
81487;SDS011;70897;52.464;13.428;2024-03-06T04:42:38;40.28;;;22.63;;
81487;SDS011;70897;52.464;13.428;2024-03-06T04:45:23;44.47;;;24.45;;
81487;SDS011;70897;52.464;13.428;2024-03-06T04:48:08;51.72;;;24.20;;
81487;SDS011;70897;52.464;13.428;2024-03-06T04:50:53;44.65;;;24.10;;
81487;SDS011;70897;52.464;13.428;2024-03-06T04:53:38;46.33;;;24.80;;
81487;SDS011;70897;52.464;13.428;2024-03-06T04:56:23;47.50;;;24.98;;
81487;SDS011;70897;52.464;13.428;2024-03-06T04:59:08;48.22;;;25.50;;
81487;SDS011;70897;52.464;13.428;2024-03-06T05:01:53;44.72;;;25.25;;
81487;SDS011;70897;52.464;13.428;2024-03-06T05:04:38;44.92;;;24.92;;
81487;SDS011;70897;52.464;13.428;2024-03-06T05:07:23;46.95;;;24.88;;
81487;SDS011;70897;52.464;13.428;2024-03-06T05:10:08;47.22;;;26.13;;
81487;SDS011;70897;52.464;13.428;2024-03-06T05:12:53;44.60;;;25.13;;
81487;SDS011;70897;52.464;13.428;2024-03-06T05:15:38;47.15;;;24.55;;
81487;SDS011;70897;52.464;13.428;2024-03-06T05:18:23;44.80;;;24.83;;
81487;SDS011;70897;52.464;13.428;2024-03-06T05:21:08;44.17;;;24.35;;
81487;SDS011;70897;52.464;13.428;2024-03-06T05:23:53;47.72;;;24.58;;
81487;SDS011;70897;52.464;13.428;2024-03-06T05:26:39;41.47;;;24.42;;
81487;SDS011;70897;52.464;13.428;2024-03-06T05:29:24;43.58;;;24.73;;
81487;SDS011;70897;52.464;13.428;2024-03-06T05:32:09;45.75;;;24.48;;
81487;SDS011;70897;52.464;13.428;2024-03-06T05:34:54;41.92;;;23.38;;
81487;SDS011;70897;52.464;13.428;2024-03-06T05:37:39;47.50;;;24.83;;
81487;SDS011;70897;52.464;13.428;2024-03-06T05:40:24;51.03;;;25.42;;
81487;SDS011;70897;52.464;13.428;2024-03-06T05:43:09;47.53;;;24.65;;
81487;SDS011;70897;52.464;13.428;2024-03-06T05:45:54;46.63;;;24.88;;
81487;SDS011;70897;52.464;13.428;2024-03-06T05:48:39;47.08;;;25.58;;
81487;SDS011;70897;52.464;13.428;2024-03-06T05:51:24;45.53;;;25.83;;
81487;SDS011;70897;52.464;13.428;2024-03-06T05:54:09;45.65;;;25.50;;
81487;SDS011;70897;52.464;13.428;2024-03-06T05:56:54;50.92;;;26.02;;
81487;SDS011;70897;52.464;13.428;2024-03-06T05:59:40;49.33;;;25.70;;
81487;SDS011;70897;52.464;13.428;2024-03-06T06:02:24;46.17;;;26.40;;
81487;SDS011;70897;52.464;13.428;2024-03-06T06:05:10;43.75;;;24.45;;
81487;SDS011;70897;52.464;13.428;2024-03-06T06:07:54;46.05;;;25.33;;
81487;SDS011;70897;52.464;13.428;2024-03-06T06:10:40;49.67;;;26.20;;
81487;SDS011;70897;52.464;13.428;2024-03-06T06:13:25;41.95;;;23.52;;
81487;SDS011;70897;52.464;13.428;2024-03-06T06:16:10;42.28;;;23.27;;
81487;SDS011;70897;52.464;13.428;2024-03-06T06:18:55;40.85;;;22.77;;
81487;SDS011;70897;52.464;13.428;2024-03-06T06:21:40;41.28;;;23.55;;
81487;SDS011;70897;52.464;13.428;2024-03-06T06:24:25;42.47;;;23.52;;
81487;SDS011;70897;52.464;13.428;2024-03-06T06:27:10;44.65;;;24.52;;
81487;SDS011;70897;52.464;13.428;2024-03-06T06:29:55;42.72;;;22.80;;
81487;SDS011;70897;52.464;13.428;2024-03-06T06:32:42;42.40;;;22.45;;
81487;SDS011;70897;52.464;13.428;2024-03-06T06:35:28;32.75;;;20.25;;
81487;SDS011;70897;52.464;13.428;2024-03-06T06:38:13;36.95;;;20.98;;
81487;SDS011;70897;52.464;13.428;2024-03-06T06:40:58;34.90;;;21.70;;
81487;SDS011;70897;52.464;13.428;2024-03-06T06:43:43;32.33;;;20.58;;
81487;SDS011;70897;52.464;13.428;2024-03-06T06:46:28;32.58;;;20.10;;
81487;SDS011;70897;52.464;13.428;2024-03-06T06:49:14;34.63;;;19.38;;
81487;SDS011;70897;52.464;13.428;2024-03-06T06:51:59;39.75;;;20.15;;
81487;SDS011;70897;52.464;13.428;2024-03-06T06:54:44;28.77;;;19.73;;
81487;SDS011;70897;52.464;13.428;2024-03-06T06:57:29;31.30;;;19.25;;
81487;SDS011;70897;52.464;13.428;2024-03-06T07:00:15;29.70;;;18.35;;
81487;SDS011;70897;52.464;13.428;2024-03-06T07:03:03;31.05;;;18.77;;
81487;SDS011;70897;52.464;13.428;2024-03-06T07:05:48;31.67;;;18.42;;
81487;SDS011;70897;52.464;13.428;2024-03-06T07:08:33;28.38;;;18.40;;
81487;SDS011;70897;52.464;13.428;2024-03-06T07:11:18;29.15;;;17.58;;
81487;SDS011;70897;52.464;13.428;2024-03-06T07:14:04;31.27;;;18.23;;
81487;SDS011;70897;52.464;13.428;2024-03-06T07:16:50;33.38;;;18.40;;
81487;SDS011;70897;52.464;13.428;2024-03-06T07:19:35;23.45;;;16.67;;
81487;SDS011;70897;52.464;13.428;2024-03-06T07:22:20;29.75;;;18.27;;
81487;SDS011;70897;52.464;13.428;2024-03-06T07:25:05;26.98;;;17.42;;
81487;SDS011;70897;52.464;13.428;2024-03-06T07:27:50;30.27;;;17.60;;
81487;SDS011;70897;52.464;13.428;2024-03-06T07:30:36;26.80;;;17.23;;
81487;SDS011;70897;52.464;13.428;2024-03-06T07:33:21;27.15;;;17.63;;
81487;SDS011;70897;52.464;13.428;2024-03-06T07:36:06;30.27;;;19.10;;
81487;SDS011;70897;52.464;13.428;2024-03-06T07:38:51;29.27;;;18.48;;
81487;SDS011;70897;52.464;13.428;2024-03-06T07:41:36;27.33;;;18.25;;
81487;SDS011;70897;52.464;13.428;2024-03-06T07:44:21;27.50;;;18.58;;
81487;SDS011;70897;52.464;13.428;2024-03-06T07:47:06;27.60;;;18.52;;
81487;SDS011;70897;52.464;13.428;2024-03-06T07:49:52;24.52;;;17.63;;
81487;SDS011;70897;52.464;13.428;2024-03-06T07:52:37;24.77;;;17.58;;
81487;SDS011;70897;52.464;13.428;2024-03-06T07:55:24;23.98;;;16.58;;
81487;SDS011;70897;52.464;13.428;2024-03-06T07:58:09;25.55;;;17.02;;
81487;SDS011;70897;52.464;13.428;2024-03-06T08:00:55;26.77;;;18.02;;
81487;SDS011;70897;52.464;13.428;2024-03-06T08:03:40;24.42;;;16.20;;
81487;SDS011;70897;52.464;13.428;2024-03-06T08:06:27;25.13;;;16.20;;
81487;SDS011;70897;52.464;13.428;2024-03-06T08:09:13;23.52;;;16.90;;
81487;SDS011;70897;52.464;13.428;2024-03-06T08:12:00;23.15;;;16.73;;
81487;SDS011;70897;52.464;13.428;2024-03-06T08:14:45;22.40;;;16.50;;
81487;SDS011;70897;52.464;13.428;2024-03-06T08:17:30;27.25;;;16.83;;
81487;SDS011;70897;52.464;13.428;2024-03-06T08:20:16;25.65;;;16.75;;
81487;SDS011;70897;52.464;13.428;2024-03-06T08:23:01;21.25;;;15.52;;
81487;SDS011;70897;52.464;13.428;2024-03-06T08:25:46;26.55;;;15.95;;
81487;SDS011;70897;52.464;13.428;2024-03-06T08:28:31;23.67;;;16.15;;
81487;SDS011;70897;52.464;13.428;2024-03-06T08:31:16;23.13;;;15.93;;
81487;SDS011;70897;52.464;13.428;2024-03-06T08:34:01;23.08;;;15.00;;
81487;SDS011;70897;52.464;13.428;2024-03-06T08:36:46;21.83;;;14.27;;
81487;SDS011;70897;52.464;13.428;2024-03-06T08:39:31;23.35;;;14.48;;
81487;SDS011;70897;52.464;13.428;2024-03-06T08:42:17;22.20;;;14.30;;
81487;SDS011;70897;52.464;13.428;2024-03-06T08:45:03;21.13;;;13.90;;
81487;SDS011;70897;52.464;13.428;2024-03-06T08:47:48;20.08;;;13.57;;
81487;SDS011;70897;52.464;13.428;2024-03-06T08:50:34;19.83;;;13.20;;
81487;SDS011;70897;52.464;13.428;2024-03-06T08:53:20;19.30;;;13.23;;
81487;SDS011;70897;52.464;13.428;2024-03-06T08:56:05;19.02;;;12.60;;
81487;SDS011;70897;52.464;13.428;2024-03-06T08:58:50;16.88;;;12.30;;
81487;SDS011;70897;52.464;13.428;2024-03-06T09:01:35;14.85;;;11.00;;
81487;SDS011;70897;52.464;13.428;2024-03-06T09:04:21;13.50;;;10.55;;
81487;SDS011;70897;52.464;13.428;2024-03-06T09:07:06;13.98;;;11.35;;
81487;SDS011;70897;52.464;13.428;2024-03-06T09:09:51;15.63;;;11.80;;
81487;SDS011;70897;52.464;13.428;2024-03-06T09:12:36;13.50;;;10.45;;
81487;SDS011;70897;52.464;13.428;2024-03-06T09:15:21;13.35;;;10.05;;
81487;SDS011;70897;52.464;13.428;2024-03-06T09:18:06;13.43;;;10.18;;
81487;SDS011;70897;52.464;13.428;2024-03-06T09:20:51;12.40;;;9.85;;
81487;SDS011;70897;52.464;13.428;2024-03-06T09:23:37;13.40;;;9.32;;
81487;SDS011;70897;52.464;13.428;2024-03-06T09:26:22;14.20;;;10.55;;
81487;SDS011;70897;52.464;13.428;2024-03-06T09:29:07;11.82;;;8.35;;
81487;SDS011;70897;52.464;13.428;2024-03-06T09:31:52;13.13;;;9.25;;
81487;SDS011;70897;52.464;13.428;2024-03-06T09:34:37;12.18;;;10.05;;
81487;SDS011;70897;52.464;13.428;2024-03-06T09:37:22;11.23;;;9.90;;
81487;SDS011;70897;52.464;13.428;2024-03-06T09:40:07;13.35;;;9.73;;
81487;SDS011;70897;52.464;13.428;2024-03-06T09:42:53;13.75;;;9.88;;
81487;SDS011;70897;52.464;13.428;2024-03-06T09:45:38;13.00;;;9.35;;
81487;SDS011;70897;52.464;13.428;2024-03-06T09:48:23;11.27;;;9.38;;
81487;SDS011;70897;52.464;13.428;2024-03-06T09:51:09;14.52;;;11.88;;
81487;SDS011;70897;52.464;13.428;2024-03-06T09:53:56;12.63;;;9.75;;
81487;SDS011;70897;52.464;13.428;2024-03-06T09:56:43;11.85;;;9.55;;
81487;SDS011;70897;52.464;13.428;2024-03-06T09:59:29;11.32;;;8.98;;
81487;SDS011;70897;52.464;13.428;2024-03-06T10:02:34;14.32;;;10.07;;
81487;SDS011;70897;52.464;13.428;2024-03-06T10:05:22;11.63;;;9.10;;
81487;SDS011;70897;52.464;13.428;2024-03-06T10:08:08;10.63;;;8.32;;
81487;SDS011;70897;52.464;13.428;2024-03-06T10:10:53;11.02;;;8.32;;
81487;SDS011;70897;52.464;13.428;2024-03-06T10:13:39;12.55;;;9.23;;
81487;SDS011;70897;52.464;13.428;2024-03-06T10:16:24;15.18;;;8.77;;
81487;SDS011;70897;52.464;13.428;2024-03-06T10:19:15;10.20;;;8.18;;
81487;SDS011;70897;52.464;13.428;2024-03-06T10:22:02;11.55;;;7.47;;
81487;SDS011;70897;52.464;13.428;2024-03-06T10:24:55;9.55;;;7.75;;
81487;SDS011;70897;52.464;13.428;2024-03-06T10:27:41;8.77;;;7.25;;
81487;SDS011;70897;52.464;13.428;2024-03-06T10:30:26;10.27;;;7.40;;
81487;SDS011;70897;52.464;13.428;2024-03-06T10:33:12;10.45;;;7.85;;
81487;SDS011;70897;52.464;13.428;2024-03-06T10:35:58;10.50;;;7.82;;
81487;SDS011;70897;52.464;13.428;2024-03-06T10:38:43;11.25;;;7.88;;
81487;SDS011;70897;52.464;13.428;2024-03-06T10:41:29;9.43;;;7.20;;
81487;SDS011;70897;52.464;13.428;2024-03-06T10:44:17;8.32;;;7.10;;
81487;SDS011;70897;52.464;13.428;2024-03-06T10:47:08;8.63;;;7.15;;
81487;SDS011;70897;52.464;13.428;2024-03-06T10:49:54;9.50;;;7.50;;
81487;SDS011;70897;52.464;13.428;2024-03-06T10:52:44;10.80;;;8.30;;
81487;SDS011;70897;52.464;13.428;2024-03-06T10:55:31;11.38;;;8.57;;
81487;SDS011;70897;52.464;13.428;2024-03-06T10:58:19;10.07;;;8.57;;
81487;SDS011;70897;52.464;13.428;2024-03-06T11:01:05;11.50;;;7.90;;
81487;SDS011;70897;52.464;13.428;2024-03-06T11:03:52;11.18;;;9.50;;
81487;SDS011;70897;52.464;13.428;2024-03-06T11:06:37;13.02;;;8.73;;
81487;SDS011;70897;52.464;13.428;2024-03-06T11:09:22;19.02;;;13.02;;
81487;SDS011;70897;52.464;13.428;2024-03-06T11:12:08;13.80;;;9.00;;
81487;SDS011;70897;52.464;13.428;2024-03-06T11:14:53;11.82;;;8.05;;
81487;SDS011;70897;52.464;13.428;2024-03-06T11:17:40;10.27;;;7.43;;
81487;SDS011;70897;52.464;13.428;2024-03-06T11:20:25;11.95;;;6.90;;
81487;SDS011;70897;52.464;13.428;2024-03-06T11:23:18;10.27;;;7.68;;
81487;SDS011;70897;52.464;13.428;2024-03-06T11:26:05;39.80;;;23.88;;
81487;SDS011;70897;52.464;13.428;2024-03-06T11:28:50;11.73;;;8.75;;
81487;SDS011;70897;52.464;13.428;2024-03-06T11:31:35;16.50;;;8.73;;
81487;SDS011;70897;52.464;13.428;2024-03-06T11:34:21;10.73;;;8.27;;
81487;SDS011;70897;52.464;13.428;2024-03-06T11:37:07;12.57;;;8.38;;
81487;SDS011;70897;52.464;13.428;2024-03-06T11:39:59;17.38;;;10.52;;
81487;SDS011;70897;52.464;13.428;2024-03-06T11:42:45;13.63;;;8.93;;
81487;SDS011;70897;52.464;13.428;2024-03-06T11:45:42;15.05;;;8.48;;
81487;SDS011;70897;52.464;13.428;2024-03-06T11:48:28;11.52;;;8.27;;
81487;SDS011;70897;52.464;13.428;2024-03-06T11:51:13;13.32;;;9.02;;
81487;SDS011;70897;52.464;13.428;2024-03-06T11:53:58;16.02;;;10.77;;
81487;SDS011;70897;52.464;13.428;2024-03-06T11:56:44;15.23;;;11.15;;
81487;SDS011;70897;52.464;13.428;2024-03-06T11:59:32;13.43;;;9.55;;
81487;SDS011;70897;52.464;13.428;2024-03-06T12:02:19;12.68;;;9.40;;
81487;SDS011;70897;52.464;13.428;2024-03-06T12:05:04;12.85;;;9.23;;
81487;SDS011;70897;52.464;13.428;2024-03-06T12:07:50;12.27;;;7.97;;
81487;SDS011;70897;52.464;13.428;2024-03-06T12:10:38;8.65;;;7.30;;
81487;SDS011;70897;52.464;13.428;2024-03-06T12:13:24;11.77;;;7.65;;
81487;SDS011;70897;52.464;13.428;2024-03-06T12:16:10;11.65;;;8.10;;
81487;SDS011;70897;52.464;13.428;2024-03-06T12:18:56;13.35;;;9.73;;
81487;SDS011;70897;52.464;13.428;2024-03-06T12:21:41;13.55;;;11.30;;
81487;SDS011;70897;52.464;13.428;2024-03-06T12:24:27;15.93;;;12.05;;
81487;SDS011;70897;52.464;13.428;2024-03-06T12:27:12;18.83;;;13.88;;
81487;SDS011;70897;52.464;13.428;2024-03-06T12:29:58;18.27;;;15.35;;
81487;SDS011;70897;52.464;13.428;2024-03-06T12:32:56;20.30;;;16.42;;
81487;SDS011;70897;52.464;13.428;2024-03-06T12:35:41;22.80;;;16.05;;
81487;SDS011;70897;52.464;13.428;2024-03-06T12:38:28;18.38;;;15.13;;
81487;SDS011;70897;52.464;13.428;2024-03-06T12:41:14;17.13;;;13.32;;
81487;SDS011;70897;52.464;13.428;2024-03-06T12:43:59;14.98;;;11.55;;
81487;SDS011;70897;52.464;13.428;2024-03-06T12:46:44;13.20;;;11.60;;
81487;SDS011;70897;52.464;13.428;2024-03-06T12:49:29;21.88;;;15.35;;
81487;SDS011;70897;52.464;13.428;2024-03-06T12:52:14;17.30;;;12.40;;
81487;SDS011;70897;52.464;13.428;2024-03-06T12:54:59;16.08;;;12.60;;
81487;SDS011;70897;52.464;13.428;2024-03-06T12:57:44;14.27;;;10.43;;
81487;SDS011;70897;52.464;13.428;2024-03-06T13:00:30;13.43;;;9.93;;
81487;SDS011;70897;52.464;13.428;2024-03-06T13:03:15;12.45;;;9.90;;
81487;SDS011;70897;52.464;13.428;2024-03-06T13:06:00;13.90;;;11.05;;
81487;SDS011;70897;52.464;13.428;2024-03-06T13:08:45;15.25;;;11.30;;
81487;SDS011;70897;52.464;13.428;2024-03-06T13:11:31;16.83;;;10.88;;
81487;SDS011;70897;52.464;13.428;2024-03-06T13:14:16;13.45;;;10.23;;
81487;SDS011;70897;52.464;13.428;2024-03-06T13:17:01;13.80;;;10.48;;
81487;SDS011;70897;52.464;13.428;2024-03-06T13:19:47;17.15;;;11.13;;
81487;SDS011;70897;52.464;13.428;2024-03-06T13:22:32;17.38;;;10.65;;
81487;SDS011;70897;52.464;13.428;2024-03-06T13:25:17;14.05;;;10.25;;
81487;SDS011;70897;52.464;13.428;2024-03-06T13:28:04;13.50;;;10.05;;
81487;SDS011;70897;52.464;13.428;2024-03-06T13:30:53;15.65;;;10.90;;
81487;SDS011;70897;52.464;13.428;2024-03-06T13:33:38;19.25;;;11.88;;
81487;SDS011;70897;52.464;13.428;2024-03-06T13:36:23;19.35;;;12.65;;
81487;SDS011;70897;52.464;13.428;2024-03-06T13:39:08;23.63;;;13.10;;
81487;SDS011;70897;52.464;13.428;2024-03-06T13:41:54;20.95;;;13.43;;
81487;SDS011;70897;52.464;13.428;2024-03-06T13:44:39;22.63;;;15.27;;
81487;SDS011;70897;52.464;13.428;2024-03-06T13:47:24;20.33;;;14.57;;
81487;SDS011;70897;52.464;13.428;2024-03-06T13:50:11;22.83;;;15.18;;
81487;SDS011;70897;52.464;13.428;2024-03-06T13:52:57;29.40;;;16.30;;
81487;SDS011;70897;52.464;13.428;2024-03-06T13:55:42;27.83;;;16.70;;
81487;SDS011;70897;52.464;13.428;2024-03-06T13:58:27;36.25;;;19.50;;
81487;SDS011;70897;52.464;13.428;2024-03-06T14:01:12;32.08;;;19.27;;
81487;SDS011;70897;52.464;13.428;2024-03-06T14:03:57;35.28;;;21.08;;
81487;SDS011;70897;52.464;13.428;2024-03-06T14:06:43;34.80;;;21.13;;
81487;SDS011;70897;52.464;13.428;2024-03-06T14:09:28;34.78;;;21.20;;
81487;SDS011;70897;52.464;13.428;2024-03-06T14:12:13;29.77;;;18.98;;
81487;SDS011;70897;52.464;13.428;2024-03-06T14:14:58;26.67;;;16.58;;
81487;SDS011;70897;52.464;13.428;2024-03-06T14:17:44;23.67;;;15.38;;
81487;SDS011;70897;52.464;13.428;2024-03-06T14:20:29;22.15;;;15.05;;
81487;SDS011;70897;52.464;13.428;2024-03-06T14:23:14;17.80;;;12.18;;
81487;SDS011;70897;52.464;13.428;2024-03-06T14:25:59;19.73;;;13.13;;
81487;SDS011;70897;52.464;13.428;2024-03-06T14:28:46;21.63;;;13.65;;
81487;SDS011;70897;52.464;13.428;2024-03-06T14:31:31;21.90;;;11.18;;
81487;SDS011;70897;52.464;13.428;2024-03-06T14:34:16;24.23;;;12.40;;
81487;SDS011;70897;52.464;13.428;2024-03-06T14:37:01;22.20;;;13.98;;
81487;SDS011;70897;52.464;13.428;2024-03-06T14:39:47;23.33;;;14.60;;
81487;SDS011;70897;52.464;13.428;2024-03-06T14:42:32;29.25;;;17.10;;
81487;SDS011;70897;52.464;13.428;2024-03-06T14:45:17;28.02;;;16.67;;
81487;SDS011;70897;52.464;13.428;2024-03-06T14:48:02;34.00;;;19.40;;
81487;SDS011;70897;52.464;13.428;2024-03-06T14:50:48;33.92;;;18.35;;
81487;SDS011;70897;52.464;13.428;2024-03-06T14:53:33;36.95;;;19.42;;
81487;SDS011;70897;52.464;13.428;2024-03-06T14:56:18;34.70;;;18.63;;
81487;SDS011;70897;52.464;13.428;2024-03-06T14:59:05;39.45;;;18.45;;
81487;SDS011;70897;52.464;13.428;2024-03-06T15:01:51;35.60;;;17.88;;
81487;SDS011;70897;52.464;13.428;2024-03-06T15:04:36;34.42;;;16.92;;
81487;SDS011;70897;52.464;13.428;2024-03-06T15:07:22;32.83;;;17.85;;
81487;SDS011;70897;52.464;13.428;2024-03-06T15:10:07;38.22;;;18.60;;
81487;SDS011;70897;52.464;13.428;2024-03-06T15:12:53;41.20;;;20.17;;
81487;SDS011;70897;52.464;13.428;2024-03-06T15:15:38;44.47;;;21.60;;
81487;SDS011;70897;52.464;13.428;2024-03-06T15:18:27;44.25;;;21.95;;
81487;SDS011;70897;52.464;13.428;2024-03-06T15:21:12;41.25;;;21.70;;
81487;SDS011;70897;52.464;13.428;2024-03-06T15:23:57;37.60;;;21.25;;
81487;SDS011;70897;52.464;13.428;2024-03-06T15:26:45;41.35;;;21.45;;
81487;SDS011;70897;52.464;13.428;2024-03-06T15:29:34;40.42;;;21.25;;
81487;SDS011;70897;52.464;13.428;2024-03-06T15:32:19;37.15;;;21.10;;
81487;SDS011;70897;52.464;13.428;2024-03-06T15:35:04;37.88;;;20.92;;
81487;SDS011;70897;52.464;13.428;2024-03-06T15:37:49;34.92;;;20.02;;
81487;SDS011;70897;52.464;13.428;2024-03-06T15:40:37;39.28;;;20.83;;
81487;SDS011;70897;52.464;13.428;2024-03-06T15:43:22;36.92;;;21.70;;
81487;SDS011;70897;52.464;13.428;2024-03-06T15:46:07;39.45;;;22.40;;
81487;SDS011;70897;52.464;13.428;2024-03-06T15:48:52;38.63;;;22.77;;
81487;SDS011;70897;52.464;13.428;2024-03-06T15:51:38;43.33;;;24.10;;
81487;SDS011;70897;52.464;13.428;2024-03-06T15:54:23;42.67;;;23.92;;
81487;SDS011;70897;52.464;13.428;2024-03-06T15:57:09;42.25;;;25.30;;